sensor_id;sensor_type;location;lat;lon;timestamp;P1;durP1;ratioP1;P2;durP2;ratioP2
23565;SDS011;22140;48.988;8.544;2023-07-31T00:03:56;5.25;;;1.20;;
23565;SDS011;22140;48.988;8.544;2023-07-31T00:08:58;6.47;;;1.40;;
23565;SDS011;22140;48.988;8.544;2023-07-31T00:13:59;5.77;;;1.30;;
23565;SDS011;22140;48.988;8.544;2023-07-31T00:19:00;10.00;;;1.70;;
23565;SDS011;22140;48.988;8.544;2023-07-31T00:24:02;8.27;;;1.50;;
23565;SDS011;22140;48.988;8.544;2023-07-31T00:29:03;8.65;;;1.65;;
23565;SDS011;22140;48.988;8.544;2023-07-31T00:34:04;6.13;;;1.37;;
23565;SDS011;22140;48.988;8.544;2023-07-31T00:39:06;4.63;;;1.50;;
23565;SDS011;22140;48.988;8.544;2023-07-31T00:44:07;7.85;;;1.70;;
23565;SDS011;22140;48.988;8.544;2023-07-31T00:49:09;10.43;;;1.70;;
23565;SDS011;22140;48.988;8.544;2023-07-31T00:54:11;8.68;;;1.70;;
23565;SDS011;22140;48.988;8.544;2023-07-31T00:59:12;6.72;;;1.50;;
23565;SDS011;22140;48.988;8.544;2023-07-31T01:04:14;5.23;;;1.40;;
23565;SDS011;22140;48.988;8.544;2023-07-31T01:09:36;6.77;;;1.67;;
23565;SDS011;22140;48.988;8.544;2023-07-31T01:14:40;5.75;;;1.33;;
23565;SDS011;22140;48.988;8.544;2023-07-31T01:19:41;7.55;;;1.80;;
23565;SDS011;22140;48.988;8.544;2023-07-31T01:24:56;7.90;;;1.70;;
23565;SDS011;22140;48.988;8.544;2023-07-31T01:35:05;7.97;;;1.58;;
23565;SDS011;22140;48.988;8.544;2023-07-31T01:40:07;4.80;;;1.30;;
23565;SDS011;22140;48.988;8.544;2023-07-31T01:45:09;5.65;;;1.55;;
23565;SDS011;22140;48.988;8.544;2023-07-31T01:50:10;7.90;;;1.55;;
23565;SDS011;22140;48.988;8.544;2023-07-31T01:55:11;5.77;;;1.67;;
23565;SDS011;22140;48.988;8.544;2023-07-31T02:00:13;7.07;;;1.60;;
23565;SDS011;22140;48.988;8.544;2023-07-31T02:05:14;6.10;;;1.60;;
23565;SDS011;22140;48.988;8.544;2023-07-31T02:10:15;5.97;;;1.60;;
23565;SDS011;22140;48.988;8.544;2023-07-31T02:15:17;10.32;;;1.45;;
23565;SDS011;22140;48.988;8.544;2023-07-31T02:20:18;7.55;;;1.73;;
23565;SDS011;22140;48.988;8.544;2023-07-31T02:25:19;8.03;;;1.37;;
23565;SDS011;22140;48.988;8.544;2023-07-31T02:30:21;8.90;;;1.93;;
23565;SDS011;22140;48.988;8.544;2023-07-31T02:35:22;7.65;;;1.77;;
23565;SDS011;22140;48.988;8.544;2023-07-31T02:40:24;6.18;;;1.65;;
23565;SDS011;22140;48.988;8.544;2023-07-31T02:45:25;6.07;;;1.40;;
23565;SDS011;22140;48.988;8.544;2023-07-31T02:50:27;7.30;;;1.52;;
23565;SDS011;22140;48.988;8.544;2023-07-31T02:55:31;6.97;;;1.80;;
23565;SDS011;22140;48.988;8.544;2023-07-31T03:00:32;7.60;;;1.70;;
23565;SDS011;22140;48.988;8.544;2023-07-31T03:05:34;7.53;;;1.58;;
23565;SDS011;22140;48.988;8.544;2023-07-31T03:10:35;7.82;;;1.55;;
23565;SDS011;22140;48.988;8.544;2023-07-31T03:15:36;6.00;;;1.33;;
23565;SDS011;22140;48.988;8.544;2023-07-31T03:20:41;8.55;;;1.40;;
23565;SDS011;22140;48.988;8.544;2023-07-31T03:25:55;6.70;;;1.50;;
23565;SDS011;22140;48.988;8.544;2023-07-31T03:30:56;7.93;;;1.63;;
23565;SDS011;22140;48.988;8.544;2023-07-31T03:35:57;7.53;;;1.40;;
23565;SDS011;22140;48.988;8.544;2023-07-31T03:40:59;5.50;;;1.60;;
23565;SDS011;22140;48.988;8.544;2023-07-31T03:46:00;8.15;;;1.58;;
23565;SDS011;22140;48.988;8.544;2023-07-31T03:51:01;7.47;;;1.90;;
23565;SDS011;22140;48.988;8.544;2023-07-31T03:56:03;8.02;;;1.50;;
23565;SDS011;22140;48.988;8.544;2023-07-31T04:01:04;6.80;;;1.50;;
23565;SDS011;22140;48.988;8.544;2023-07-31T04:06:06;7.50;;;1.60;;
23565;SDS011;22140;48.988;8.544;2023-07-31T04:11:08;6.07;;;1.60;;
23565;SDS011;22140;48.988;8.544;2023-07-31T04:16:09;6.95;;;1.50;;
23565;SDS011;22140;48.988;8.544;2023-07-31T04:21:11;8.90;;;1.50;;
23565;SDS011;22140;48.988;8.544;2023-07-31T04:26:12;8.00;;;1.57;;
23565;SDS011;22140;48.988;8.544;2023-07-31T04:31:14;6.18;;;1.55;;
23565;SDS011;22140;48.988;8.544;2023-07-31T04:36:15;14.60;;;1.58;;
23565;SDS011;22140;48.988;8.544;2023-07-31T04:41:16;8.93;;;1.70;;
23565;SDS011;22140;48.988;8.544;2023-07-31T04:46:18;10.18;;;1.88;;
23565;SDS011;22140;48.988;8.544;2023-07-31T04:51:19;6.45;;;1.90;;
23565;SDS011;22140;48.988;8.544;2023-07-31T04:56:22;14.47;;;2.10;;
23565;SDS011;22140;48.988;8.544;2023-07-31T05:01:23;9.82;;;2.10;;
23565;SDS011;22140;48.988;8.544;2023-07-31T05:06:25;6.95;;;1.85;;
23565;SDS011;22140;48.988;8.544;2023-07-31T05:11:26;7.13;;;1.73;;
23565;SDS011;22140;48.988;8.544;2023-07-31T05:16:27;8.00;;;2.40;;
23565;SDS011;22140;48.988;8.544;2023-07-31T05:21:30;11.23;;;1.75;;
23565;SDS011;22140;48.988;8.544;2023-07-31T05:26:31;7.80;;;2.08;;
23565;SDS011;22140;48.988;8.544;2023-07-31T05:31:33;8.80;;;2.20;;
23565;SDS011;22140;48.988;8.544;2023-07-31T05:36:34;7.47;;;1.60;;
23565;SDS011;22140;48.988;8.544;2023-07-31T05:41:36;7.03;;;1.63;;
23565;SDS011;22140;48.988;8.544;2023-07-31T05:46:38;10.63;;;2.10;;
23565;SDS011;22140;48.988;8.544;2023-07-31T05:51:40;6.63;;;1.90;;
23565;SDS011;22140;48.988;8.544;2023-07-31T05:56:41;7.35;;;2.00;;
23565;SDS011;22140;48.988;8.544;2023-07-31T06:01:43;8.23;;;1.93;;
23565;SDS011;22140;48.988;8.544;2023-07-31T06:06:44;7.80;;;1.53;;
23565;SDS011;22140;48.988;8.544;2023-07-31T06:11:46;8.27;;;1.80;;
23565;SDS011;22140;48.988;8.544;2023-07-31T06:16:47;10.20;;;2.03;;
23565;SDS011;22140;48.988;8.544;2023-07-31T06:21:48;8.37;;;1.90;;
23565;SDS011;22140;48.988;8.544;2023-07-31T06:26:50;8.57;;;2.00;;
23565;SDS011;22140;48.988;8.544;2023-07-31T06:31:52;10.05;;;1.83;;
23565;SDS011;22140;48.988;8.544;2023-07-31T06:36:53;7.83;;;1.90;;
23565;SDS011;22140;48.988;8.544;2023-07-31T06:41:54;6.28;;;1.85;;
23565;SDS011;22140;48.988;8.544;2023-07-31T06:46:56;11.25;;;1.95;;
23565;SDS011;22140;48.988;8.544;2023-07-31T06:51:57;11.53;;;2.97;;
23565;SDS011;22140;48.988;8.544;2023-07-31T06:56:58;34.43;;;3.33;;
23565;SDS011;22140;48.988;8.544;2023-07-31T07:02:00;13.38;;;2.17;;
23565;SDS011;22140;48.988;8.544;2023-07-31T07:07:03;8.30;;;2.10;;
23565;SDS011;22140;48.988;8.544;2023-07-31T07:12:05;8.77;;;1.57;;
23565;SDS011;22140;48.988;8.544;2023-07-31T07:17:06;9.75;;;1.92;;
23565;SDS011;22140;48.988;8.544;2023-07-31T07:22:08;15.77;;;2.92;;
23565;SDS011;22140;48.988;8.544;2023-07-31T07:27:10;10.47;;;2.17;;
23565;SDS011;22140;48.988;8.544;2023-07-31T07:32:12;7.85;;;2.17;;
23565;SDS011;22140;48.988;8.544;2023-07-31T07:37:14;8.90;;;2.00;;
23565;SDS011;22140;48.988;8.544;2023-07-31T07:42:16;12.87;;;1.90;;
23565;SDS011;22140;48.988;8.544;2023-07-31T07:47:17;8.13;;;2.00;;
23565;SDS011;22140;48.988;8.544;2023-07-31T07:52:19;10.00;;;2.13;;
23565;SDS011;22140;48.988;8.544;2023-07-31T07:57:20;9.02;;;1.85;;
23565;SDS011;22140;48.988;8.544;2023-07-31T08:02:22;10.23;;;2.40;;
23565;SDS011;22140;48.988;8.544;2023-07-31T08:07:23;9.00;;;2.15;;
23565;SDS011;22140;48.988;8.544;2023-07-31T08:12:24;8.18;;;1.85;;
23565;SDS011;22140;48.988;8.544;2023-07-31T08:17:26;12.60;;;2.10;;
23565;SDS011;22140;48.988;8.544;2023-07-31T08:22:27;9.57;;;1.98;;
23565;SDS011;22140;48.988;8.544;2023-07-31T08:27:28;7.30;;;2.15;;
23565;SDS011;22140;48.988;8.544;2023-07-31T08:32:30;8.50;;;2.07;;
23565;SDS011;22140;48.988;8.544;2023-07-31T08:37:31;13.23;;;2.87;;
23565;SDS011;22140;48.988;8.544;2023-07-31T08:42:33;6.95;;;1.88;;
23565;SDS011;22140;48.988;8.544;2023-07-31T08:47:34;11.27;;;2.13;;
23565;SDS011;22140;48.988;8.544;2023-07-31T08:52:36;10.87;;;2.47;;
23565;SDS011;22140;48.988;8.544;2023-07-31T08:57:37;7.93;;;2.10;;
23565;SDS011;22140;48.988;8.544;2023-07-31T09:07:46;10.20;;;2.00;;
23565;SDS011;22140;48.988;8.544;2023-07-31T09:12:48;10.75;;;2.50;;
23565;SDS011;22140;48.988;8.544;2023-07-31T09:17:58;10.00;;;2.42;;
23565;SDS011;22140;48.988;8.544;2023-07-31T09:23:06;11.83;;;2.53;;
23565;SDS011;22140;48.988;8.544;2023-07-31T09:28:09;9.10;;;2.50;;
23565;SDS011;22140;48.988;8.544;2023-07-31T09:33:11;7.90;;;2.13;;
23565;SDS011;22140;48.988;8.544;2023-07-31T09:38:13;10.13;;;2.40;;
23565;SDS011;22140;48.988;8.544;2023-07-31T09:43:19;9.27;;;2.30;;
23565;SDS011;22140;48.988;8.544;2023-07-31T09:48:20;8.10;;;2.30;;
23565;SDS011;22140;48.988;8.544;2023-07-31T09:53:27;8.25;;;2.05;;
23565;SDS011;22140;48.988;8.544;2023-07-31T09:58:29;8.80;;;2.30;;
23565;SDS011;22140;48.988;8.544;2023-07-31T10:03:31;9.23;;;2.40;;
23565;SDS011;22140;48.988;8.544;2023-07-31T10:08:33;9.43;;;2.20;;
23565;SDS011;22140;48.988;8.544;2023-07-31T10:13:37;8.90;;;2.30;;
23565;SDS011;22140;48.988;8.544;2023-07-31T10:18:39;9.37;;;2.30;;
23565;SDS011;22140;48.988;8.544;2023-07-31T10:23:41;11.82;;;2.50;;
23565;SDS011;22140;48.988;8.544;2023-07-31T10:28:44;11.30;;;2.25;;
23565;SDS011;22140;48.988;8.544;2023-07-31T10:33:46;9.00;;;2.30;;
23565;SDS011;22140;48.988;8.544;2023-07-31T10:38:51;28.90;;;3.42;;
23565;SDS011;22140;48.988;8.544;2023-07-31T10:43:54;13.45;;;2.35;;
23565;SDS011;22140;48.988;8.544;2023-07-31T10:49:02;9.33;;;2.33;;
23565;SDS011;22140;48.988;8.544;2023-07-31T10:54:10;18.58;;;2.90;;
23565;SDS011;22140;48.988;8.544;2023-07-31T10:59:13;7.95;;;2.30;;
23565;SDS011;22140;48.988;8.544;2023-07-31T11:04:15;8.47;;;2.17;;
23565;SDS011;22140;48.988;8.544;2023-07-31T11:09:22;9.27;;;2.03;;
23565;SDS011;22140;48.988;8.544;2023-07-31T11:14:24;8.32;;;1.90;;
23565;SDS011;22140;48.988;8.544;2023-07-31T11:19:25;10.02;;;2.40;;
23565;SDS011;22140;48.988;8.544;2023-07-31T11:24:26;10.20;;;2.50;;
23565;SDS011;22140;48.988;8.544;2023-07-31T11:29:28;9.85;;;2.53;;
23565;SDS011;22140;48.988;8.544;2023-07-31T11:34:30;8.45;;;2.38;;
23565;SDS011;22140;48.988;8.544;2023-07-31T11:39:31;6.53;;;2.30;;
23565;SDS011;22140;48.988;8.544;2023-07-31T11:44:39;13.25;;;2.67;;
23565;SDS011;22140;48.988;8.544;2023-07-31T11:49:43;8.23;;;2.17;;
23565;SDS011;22140;48.988;8.544;2023-07-31T11:54:44;18.90;;;3.60;;
23565;SDS011;22140;48.988;8.544;2023-07-31T11:59:46;21.57;;;3.17;;
23565;SDS011;22140;48.988;8.544;2023-07-31T12:04:47;16.20;;;2.70;;
23565;SDS011;22140;48.988;8.544;2023-07-31T12:09:52;8.63;;;2.25;;
23565;SDS011;22140;48.988;8.544;2023-07-31T12:14:54;15.37;;;2.40;;
23565;SDS011;22140;48.988;8.544;2023-07-31T12:19:56;6.55;;;1.95;;
23565;SDS011;22140;48.988;8.544;2023-07-31T12:25:00;9.80;;;2.42;;
23565;SDS011;22140;48.988;8.544;2023-07-31T12:30:01;13.07;;;3.53;;
23565;SDS011;22140;48.988;8.544;2023-07-31T12:35:05;11.40;;;1.98;;
23565;SDS011;22140;48.988;8.544;2023-07-31T12:40:07;18.92;;;2.53;;
23565;SDS011;22140;48.988;8.544;2023-07-31T12:45:09;10.03;;;2.47;;
23565;SDS011;22140;48.988;8.544;2023-07-31T12:50:11;7.83;;;2.60;;
23565;SDS011;22140;48.988;8.544;2023-07-31T12:55:12;15.13;;;2.55;;
23565;SDS011;22140;48.988;8.544;2023-07-31T13:00:14;17.38;;;2.97;;
23565;SDS011;22140;48.988;8.544;2023-07-31T13:05:15;11.60;;;2.60;;
23565;SDS011;22140;48.988;8.544;2023-07-31T13:10:17;9.20;;;2.67;;
23565;SDS011;22140;48.988;8.544;2023-07-31T13:15:18;14.13;;;2.80;;
23565;SDS011;22140;48.988;8.544;2023-07-31T13:20:19;10.00;;;2.20;;
23565;SDS011;22140;48.988;8.544;2023-07-31T13:25:21;12.88;;;2.55;;
23565;SDS011;22140;48.988;8.544;2023-07-31T13:30:22;7.78;;;2.15;;
23565;SDS011;22140;48.988;8.544;2023-07-31T13:35:23;8.63;;;2.83;;
23565;SDS011;22140;48.988;8.544;2023-07-31T13:40:25;13.13;;;2.77;;
23565;SDS011;22140;48.988;8.544;2023-07-31T13:45:26;7.85;;;2.10;;
23565;SDS011;22140;48.988;8.544;2023-07-31T13:50:28;8.00;;;2.40;;
23565;SDS011;22140;48.988;8.544;2023-07-31T13:55:29;8.37;;;2.43;;
23565;SDS011;22140;48.988;8.544;2023-07-31T14:00:30;7.10;;;2.25;;
23565;SDS011;22140;48.988;8.544;2023-07-31T14:05:32;7.80;;;2.05;;
23565;SDS011;22140;48.988;8.544;2023-07-31T14:10:34;6.07;;;2.30;;
23565;SDS011;22140;48.988;8.544;2023-07-31T14:15:35;8.20;;;2.60;;
23565;SDS011;22140;48.988;8.544;2023-07-31T14:20:37;20.63;;;3.30;;
23565;SDS011;22140;48.988;8.544;2023-07-31T14:25:38;7.73;;;2.13;;
23565;SDS011;22140;48.988;8.544;2023-07-31T14:30:40;8.33;;;2.37;;
23565;SDS011;22140;48.988;8.544;2023-07-31T14:35:41;8.93;;;2.50;;
23565;SDS011;22140;48.988;8.544;2023-07-31T14:40:42;8.73;;;2.63;;
23565;SDS011;22140;48.988;8.544;2023-07-31T14:45:44;7.10;;;2.07;;
23565;SDS011;22140;48.988;8.544;2023-07-31T14:50:47;10.73;;;2.30;;
23565;SDS011;22140;48.988;8.544;2023-07-31T14:55:48;7.68;;;2.40;;
23565;SDS011;22140;48.988;8.544;2023-07-31T15:00:50;8.10;;;2.20;;
23565;SDS011;22140;48.988;8.544;2023-07-31T15:05:51;8.73;;;2.22;;
23565;SDS011;22140;48.988;8.544;2023-07-31T15:10:54;8.65;;;2.50;;
23565;SDS011;22140;48.988;8.544;2023-07-31T15:15:58;9.27;;;2.20;;
23565;SDS011;22140;48.988;8.544;2023-07-31T15:20:59;7.13;;;2.23;;
23565;SDS011;22140;48.988;8.544;2023-07-31T15:26:01;8.55;;;2.22;;
23565;SDS011;22140;48.988;8.544;2023-07-31T15:31:02;9.02;;;2.58;;
23565;SDS011;22140;48.988;8.544;2023-07-31T15:36:04;10.63;;;2.40;;
23565;SDS011;22140;48.988;8.544;2023-07-31T15:41:05;9.82;;;2.60;;
23565;SDS011;22140;48.988;8.544;2023-07-31T15:46:07;13.07;;;2.58;;
23565;SDS011;22140;48.988;8.544;2023-07-31T15:51:08;7.77;;;2.47;;
23565;SDS011;22140;48.988;8.544;2023-07-31T15:56:09;9.65;;;2.47;;
23565;SDS011;22140;48.988;8.544;2023-07-31T16:01:11;9.68;;;2.47;;
23565;SDS011;22140;48.988;8.544;2023-07-31T16:06:12;12.70;;;2.67;;
23565;SDS011;22140;48.988;8.544;2023-07-31T16:11:14;8.57;;;2.50;;
23565;SDS011;22140;48.988;8.544;2023-07-31T16:16:15;7.95;;;2.63;;
23565;SDS011;22140;48.988;8.544;2023-07-31T16:21:16;31.08;;;3.53;;
23565;SDS011;22140;48.988;8.544;2023-07-31T16:26:18;8.83;;;2.30;;
23565;SDS011;22140;48.988;8.544;2023-07-31T16:31:19;11.98;;;2.70;;
23565;SDS011;22140;48.988;8.544;2023-07-31T16:36:21;9.95;;;2.30;;
23565;SDS011;22140;48.988;8.544;2023-07-31T16:41:22;8.13;;;2.53;;
23565;SDS011;22140;48.988;8.544;2023-07-31T16:46:25;59.80;;;6.53;;
23565;SDS011;22140;48.988;8.544;2023-07-31T16:51:26;13.13;;;2.47;;
23565;SDS011;22140;48.988;8.544;2023-07-31T16:56:27;10.20;;;2.43;;
23565;SDS011;22140;48.988;8.544;2023-07-31T17:01:29;8.57;;;2.30;;
23565;SDS011;22140;48.988;8.544;2023-07-31T17:06:33;7.82;;;2.60;;
23565;SDS011;22140;48.988;8.544;2023-07-31T17:11:35;10.45;;;2.60;;
23565;SDS011;22140;48.988;8.544;2023-07-31T17:16:37;9.30;;;2.70;;
23565;SDS011;22140;48.988;8.544;2023-07-31T17:21:39;9.23;;;2.47;;
23565;SDS011;22140;48.988;8.544;2023-07-31T17:26:41;11.18;;;2.78;;
23565;SDS011;22140;48.988;8.544;2023-07-31T17:31:42;9.20;;;2.83;;
23565;SDS011;22140;48.988;8.544;2023-07-31T17:36:44;22.95;;;3.40;;
23565;SDS011;22140;48.988;8.544;2023-07-31T17:41:45;9.07;;;2.65;;
23565;SDS011;22140;48.988;8.544;2023-07-31T17:46:46;8.37;;;2.80;;
23565;SDS011;22140;48.988;8.544;2023-07-31T17:51:50;8.63;;;2.53;;
23565;SDS011;22140;48.988;8.544;2023-07-31T17:56:51;10.10;;;2.80;;
23565;SDS011;22140;48.988;8.544;2023-07-31T18:01:52;9.60;;;2.72;;
23565;SDS011;22140;48.988;8.544;2023-07-31T18:06:54;8.80;;;2.70;;
23565;SDS011;22140;48.988;8.544;2023-07-31T18:11:55;7.38;;;2.47;;
23565;SDS011;22140;48.988;8.544;2023-07-31T18:16:58;9.35;;;2.80;;
23565;SDS011;22140;48.988;8.544;2023-07-31T18:21:59;8.53;;;2.73;;
23565;SDS011;22140;48.988;8.544;2023-07-31T18:27:00;10.20;;;2.95;;
23565;SDS011;22140;48.988;8.544;2023-07-31T18:32:02;9.77;;;3.25;;
23565;SDS011;22140;48.988;8.544;2023-07-31T18:37:03;9.87;;;3.10;;
23565;SDS011;22140;48.988;8.544;2023-07-31T18:42:05;9.10;;;3.10;;
23565;SDS011;22140;48.988;8.544;2023-07-31T18:47:06;10.10;;;3.03;;
23565;SDS011;22140;48.988;8.544;2023-07-31T18:52:08;7.88;;;2.70;;
23565;SDS011;22140;48.988;8.544;2023-07-31T18:57:09;7.87;;;2.47;;
23565;SDS011;22140;48.988;8.544;2023-07-31T19:02:10;7.25;;;2.22;;
23565;SDS011;22140;48.988;8.544;2023-07-31T19:07:12;7.28;;;2.60;;
23565;SDS011;22140;48.988;8.544;2023-07-31T19:12:13;10.50;;;2.70;;
23565;SDS011;22140;48.988;8.544;2023-07-31T19:17:15;9.90;;;2.78;;
23565;SDS011;22140;48.988;8.544;2023-07-31T19:22:17;7.40;;;2.55;;
23565;SDS011;22140;48.988;8.544;2023-07-31T19:27:18;9.37;;;2.80;;
23565;SDS011;22140;48.988;8.544;2023-07-31T19:32:19;8.00;;;2.60;;
23565;SDS011;22140;48.988;8.544;2023-07-31T19:37:21;8.30;;;2.50;;
23565;SDS011;22140;48.988;8.544;2023-07-31T19:42:22;7.80;;;2.30;;
23565;SDS011;22140;48.988;8.544;2023-07-31T19:47:24;8.23;;;2.40;;
23565;SDS011;22140;48.988;8.544;2023-07-31T19:52:25;9.25;;;2.50;;
23565;SDS011;22140;48.988;8.544;2023-07-31T19:57:26;9.63;;;2.63;;
23565;SDS011;22140;48.988;8.544;2023-07-31T20:02:28;7.50;;;2.53;;
23565;SDS011;22140;48.988;8.544;2023-07-31T20:07:29;8.57;;;2.67;;
23565;SDS011;22140;48.988;8.544;2023-07-31T20:12:30;8.15;;;2.90;;
23565;SDS011;22140;48.988;8.544;2023-07-31T20:17:32;7.93;;;2.50;;
23565;SDS011;22140;48.988;8.544;2023-07-31T20:22:33;7.33;;;2.50;;
23565;SDS011;22140;48.988;8.544;2023-07-31T20:27:35;7.75;;;2.55;;
23565;SDS011;22140;48.988;8.544;2023-07-31T20:32:36;7.60;;;2.38;;
23565;SDS011;22140;48.988;8.544;2023-07-31T20:37:37;8.90;;;2.50;;
23565;SDS011;22140;48.988;8.544;2023-07-31T20:42:39;7.00;;;2.55;;
23565;SDS011;22140;48.988;8.544;2023-07-31T20:47:40;9.10;;;2.40;;
23565;SDS011;22140;48.988;8.544;2023-07-31T20:52:45;6.80;;;2.50;;
23565;SDS011;22140;48.988;8.544;2023-07-31T20:57:46;7.75;;;2.40;;
23565;SDS011;22140;48.988;8.544;2023-07-31T21:02:47;9.95;;;2.58;;
23565;SDS011;22140;48.988;8.544;2023-07-31T21:07:49;9.63;;;2.90;;
23565;SDS011;22140;48.988;8.544;2023-07-31T21:12:50;7.63;;;2.80;;
23565;SDS011;22140;48.988;8.544;2023-07-31T21:17:52;13.15;;;3.05;;
23565;SDS011;22140;48.988;8.544;2023-07-31T21:22:54;9.93;;;2.60;;
23565;SDS011;22140;48.988;8.544;2023-07-31T21:27:55;7.90;;;2.70;;
23565;SDS011;22140;48.988;8.544;2023-07-31T21:32:56;8.70;;;3.35;;
23565;SDS011;22140;48.988;8.544;2023-07-31T21:37:58;8.48;;;3.00;;
23565;SDS011;22140;48.988;8.544;2023-07-31T21:43:00;9.10;;;3.00;;
23565;SDS011;22140;48.988;8.544;2023-07-31T21:48:01;8.18;;;2.80;;
23565;SDS011;22140;48.988;8.544;2023-07-31T21:53:02;8.73;;;2.83;;
23565;SDS011;22140;48.988;8.544;2023-07-31T21:58:04;6.93;;;2.53;;
23565;SDS011;22140;48.988;8.544;2023-07-31T22:03:05;9.03;;;3.20;;
23565;SDS011;22140;48.988;8.544;2023-07-31T22:08:07;8.02;;;2.67;;
23565;SDS011;22140;48.988;8.544;2023-07-31T22:13:08;10.98;;;2.60;;
23565;SDS011;22140;48.988;8.544;2023-07-31T22:18:09;9.53;;;2.93;;
23565;SDS011;22140;48.988;8.544;2023-07-31T22:23:11;9.23;;;3.38;;
23565;SDS011;22140;48.988;8.544;2023-07-31T22:28:12;7.40;;;2.90;;
23565;SDS011;22140;48.988;8.544;2023-07-31T22:33:21;8.93;;;3.10;;
23565;SDS011;22140;48.988;8.544;2023-07-31T22:38:23;8.40;;;3.17;;
23565;SDS011;22140;48.988;8.544;2023-07-31T22:43:24;9.65;;;3.03;;
23565;SDS011;22140;48.988;8.544;2023-07-31T22:48:26;10.00;;;3.23;;
23565;SDS011;22140;48.988;8.544;2023-07-31T22:53:27;8.90;;;3.43;;
23565;SDS011;22140;48.988;8.544;2023-07-31T22:58:29;9.15;;;2.85;;
23565;SDS011;22140;48.988;8.544;2023-07-31T23:03:30;9.30;;;3.10;;
23565;SDS011;22140;48.988;8.544;2023-07-31T23:08:32;7.57;;;2.77;;
23565;SDS011;22140;48.988;8.544;2023-07-31T23:13:33;8.30;;;3.10;;
23565;SDS011;22140;48.988;8.544;2023-07-31T23:18:34;9.57;;;2.78;;
23565;SDS011;22140;48.988;8.544;2023-07-31T23:23:36;8.90;;;2.87;;
23565;SDS011;22140;48.988;8.544;2023-07-31T23:28:37;8.57;;;2.45;;
23565;SDS011;22140;48.988;8.544;2023-07-31T23:33:38;7.85;;;2.72;;
23565;SDS011;22140;48.988;8.544;2023-07-31T23:38:40;9.20;;;2.87;;
23565;SDS011;22140;48.988;8.544;2023-07-31T23:43:41;9.47;;;2.77;;
23565;SDS011;22140;48.988;8.544;2023-07-31T23:48:46;8.38;;;2.83;;
23565;SDS011;22140;48.988;8.544;2023-07-31T23:53:47;9.55;;;2.85;;
23565;SDS011;22140;48.988;8.544;2023-07-31T23:58:49;8.60;;;2.90;;
